createdAt,value
2019-01-20T00:00:50.655Z,33.70
2019-01-20T00:03:18.907Z,33.95
2019-01-20T00:05:47.129Z,37.23
2019-01-20T00:08:15.373Z,34.80
2019-01-20T00:10:43.594Z,32.78
2019-01-20T00:13:11.804Z,34.90
2019-01-20T00:15:40.583Z,35.73
2019-01-20T00:18:08.818Z,34.93
2019-01-20T00:20:37.070Z,33.40
2019-01-20T00:23:05.298Z,34.73
2019-01-20T00:25:33.570Z,32.80
2019-01-20T00:28:01.776Z,33.02
2019-01-20T00:30:29.974Z,36.50
2019-01-20T00:32:58.439Z,35.00
2019-01-20T00:35:26.651Z,36.33
2019-01-20T00:37:54.860Z,37.75
2019-01-20T00:40:23.078Z,35.95
2019-01-20T00:42:51.287Z,37.53
2019-01-20T00:45:19.497Z,45.70
2019-01-20T00:47:47.751Z,45.55
2019-01-20T00:50:16.547Z,48.80
2019-01-20T00:52:44.762Z,47.90
2019-01-20T00:55:15.820Z,46.93
2019-01-20T00:57:44.263Z,49.42
2019-01-20T01:00:27.248Z,41.50
2019-01-20T01:02:55.472Z,34.85
2019-01-20T01:05:23.663Z,34.23
2019-01-20T01:07:51.905Z,37.05
2019-01-20T01:10:20.148Z,35.85
2019-01-20T01:12:51.749Z,34.20
2019-01-20T01:15:20.018Z,33.08
2019-01-20T01:17:48.214Z,32.42
2019-01-20T01:20:18.396Z,36.17
2019-01-20T01:22:46.654Z,35.75
2019-01-20T01:25:16.116Z,34.50
2019-01-20T01:27:45.972Z,32.80
2019-01-20T01:30:18.964Z,31.87
2019-01-20T01:32:47.174Z,34.58
2019-01-20T01:35:15.381Z,35.70
2019-01-20T01:37:43.632Z,32.45
2019-01-20T01:40:16.154Z,32.80
2019-01-20T01:42:44.366Z,31.85
2019-01-20T01:45:19.634Z,29.97
2019-01-20T01:47:47.852Z,29.92
2019-01-20T01:50:16.823Z,31.07
2019-01-20T01:52:45.080Z,32.60
2019-01-20T01:55:13.284Z,33.03
2019-01-20T01:57:41.486Z,31.45
2019-01-20T02:00:17.907Z,32.35
2019-01-20T02:02:46.124Z,33.00
2019-01-20T02:05:14.311Z,35.50
2019-01-20T02:07:42.550Z,33.18
2019-01-20T02:10:13.518Z,32.85
2019-01-20T02:12:41.795Z,31.10
2019-01-20T02:15:12.262Z,32.83
2019-01-20T02:17:40.460Z,30.82
2019-01-20T02:20:11.405Z,33.00
2019-01-20T02:22:39.685Z,32.90
2019-01-20T02:25:07.933Z,33.00
2019-01-20T02:27:36.168Z,32.15
2019-01-20T02:30:08.241Z,33.45
2019-01-20T02:32:36.719Z,30.40
2019-01-20T02:35:05.813Z,33.18
2019-01-20T02:37:34.083Z,32.93
2019-01-20T02:40:02.584Z,36.23
2019-01-20T02:42:31.999Z,37.35
2019-01-20T02:45:00.476Z,33.53
2019-01-20T02:47:28.799Z,35.28
2019-01-20T02:49:57.049Z,34.50
2019-01-20T02:52:25.325Z,35.90
2019-01-20T02:54:53.573Z,34.25
2019-01-20T02:57:21.812Z,37.23
2019-01-20T02:59:50.117Z,40.12
2019-01-20T03:02:18.349Z,36.10
2019-01-20T03:04:46.573Z,37.83
2019-01-20T03:07:14.833Z,38.20
2019-01-20T03:09:43.064Z,36.85
2019-01-20T03:12:11.308Z,41.73
2019-01-20T03:14:39.567Z,37.98
2019-01-20T03:17:07.810Z,37.88
2019-01-20T03:19:36.096Z,35.85
2019-01-20T03:22:04.484Z,36.10
2019-01-20T03:24:32.737Z,32.95
2019-01-20T03:27:00.976Z,38.37
2019-01-20T03:29:29.232Z,35.78
2019-01-20T03:31:57.492Z,33.35
2019-01-20T03:34:25.720Z,32.97
2019-01-20T03:36:54.056Z,34.60
2019-01-20T03:39:22.294Z,32.90
2019-01-20T03:41:50.535Z,35.33
2019-01-20T03:44:18.867Z,31.87
2019-01-20T03:46:48.403Z,32.38
2019-01-20T03:49:16.925Z,32.15
2019-01-20T03:51:45.194Z,31.95
2019-01-20T03:54:13.429Z,32.03
2019-01-20T03:56:41.664Z,31.17
2019-01-20T03:59:12.235Z,33.55
2019-01-20T04:01:39.888Z,31.70
2019-01-20T04:04:08.136Z,30.08
2019-01-20T04:06:36.420Z,31.42
2019-01-20T04:09:07.316Z,31.65
2019-01-20T04:11:35.541Z,30.97
2019-01-20T04:14:23.229Z,32.48
2019-01-20T04:16:51.459Z,31.20
2019-01-20T04:19:19.694Z,30.80
2019-01-20T04:21:47.952Z,31.35
2019-01-20T04:24:16.192Z,31.77
2019-01-20T04:26:44.418Z,28.87
2019-01-20T04:29:12.696Z,30.72
2019-01-20T04:31:40.931Z,29.70
2019-01-20T04:34:09.164Z,28.32
2019-01-20T04:36:37.439Z,27.32
2019-01-20T04:39:06.454Z,30.00
2019-01-20T04:41:34.729Z,28.37
2019-01-20T04:44:02.992Z,29.00
2019-01-20T04:46:31.245Z,31.20
2019-01-20T04:48:59.475Z,28.90
2019-01-20T04:51:27.746Z,29.63
2019-01-20T04:53:56.068Z,29.12
2019-01-20T04:56:24.290Z,29.57
2019-01-20T04:58:52.596Z,28.00
2019-01-20T05:01:20.888Z,32.08
2019-01-20T05:03:49.399Z,29.60
2019-01-20T05:06:17.946Z,30.43
2019-01-20T05:08:46.180Z,33.10
2019-01-20T05:11:14.451Z,28.62
2019-01-20T05:13:42.785Z,29.82
2019-01-20T05:16:11.012Z,30.00
2019-01-20T05:18:39.254Z,31.68
2019-01-20T05:21:07.508Z,30.72
2019-01-20T05:23:35.770Z,32.28
2019-01-20T05:26:04.022Z,30.45
2019-01-20T05:28:32.283Z,31.25
2019-01-20T05:31:00.535Z,30.23
2019-01-20T05:33:28.761Z,30.08
2019-01-20T05:35:57.019Z,32.53
2019-01-20T05:38:25.269Z,34.25
2019-01-20T05:40:53.477Z,33.05
2019-01-20T05:43:21.737Z,31.23
2019-01-20T05:45:49.982Z,32.28
2019-01-20T05:48:18.201Z,31.97
2019-01-20T05:50:46.476Z,29.80
2019-01-20T05:53:14.720Z,29.18
2019-01-20T05:55:42.944Z,27.50
2019-01-20T05:58:11.215Z,26.30
2019-01-20T06:00:39.441Z,28.03
2019-01-20T06:03:07.668Z,29.98
2019-01-20T06:05:35.937Z,28.85
2019-01-20T06:08:04.238Z,29.60
2019-01-20T06:10:32.459Z,30.68
2019-01-20T06:13:00.720Z,31.68
2019-01-20T06:15:28.961Z,32.70
2019-01-20T06:17:57.250Z,31.33
2019-01-20T06:20:25.508Z,30.48
2019-01-20T06:22:53.756Z,31.00
2019-01-20T06:25:22.021Z,29.82
2019-01-20T06:27:50.296Z,29.10
2019-01-20T06:30:31.327Z,29.80
2019-01-20T06:32:59.589Z,31.40
2019-01-20T06:35:27.866Z,32.30
2019-01-20T06:37:56.100Z,29.25
2019-01-20T06:40:24.348Z,32.13
2019-01-20T06:42:52.592Z,30.92
2019-01-20T06:45:20.928Z,29.37
2019-01-20T06:47:49.152Z,28.02
2019-01-20T06:50:18.650Z,29.95
2019-01-20T06:52:46.889Z,32.65
2019-01-20T06:55:15.164Z,30.25
2019-01-20T06:57:43.388Z,33.55
2019-01-20T07:00:20.042Z,30.00
2019-01-20T07:02:48.272Z,29.77
2019-01-20T07:05:16.511Z,31.25
2019-01-20T07:07:44.779Z,29.48
2019-01-20T07:10:15.068Z,30.75
2019-01-20T07:12:43.332Z,32.08
2019-01-20T07:15:14.683Z,30.15
2019-01-20T07:17:42.932Z,29.35
2019-01-20T07:20:12.584Z,33.20
2019-01-20T07:22:40.869Z,30.43
2019-01-20T07:25:09.112Z,32.45
2019-01-20T07:27:37.348Z,35.15
2019-01-20T07:30:13.606Z,32.28
2019-01-20T07:32:41.836Z,31.33
2019-01-20T07:35:10.173Z,31.30
2019-01-20T07:37:38.397Z,31.53
2019-01-20T07:40:09.895Z,30.80
2019-01-20T07:42:38.134Z,29.95
2019-01-20T07:45:09.419Z,33.10
2019-01-20T07:47:37.647Z,30.40
2019-01-20T07:50:09.139Z,29.75
2019-01-20T07:52:37.390Z,31.80
2019-01-20T07:55:08.367Z,30.00
2019-01-20T07:57:36.632Z,28.67
2019-01-20T08:00:08.264Z,30.68
2019-01-20T08:02:36.521Z,28.70
2019-01-20T08:05:06.610Z,29.67
2019-01-20T08:07:34.882Z,30.62
2019-01-20T08:10:05.453Z,29.48
2019-01-20T08:12:33.685Z,31.12
2019-01-20T08:15:01.997Z,31.90
2019-01-20T08:17:30.251Z,33.40
2019-01-20T08:19:58.499Z,31.70
2019-01-20T08:22:26.732Z,33.15
2019-01-20T08:24:54.991Z,33.25
2019-01-20T08:27:23.232Z,35.43
2019-01-20T08:29:51.489Z,33.40
2019-01-20T08:32:19.725Z,33.70
2019-01-20T08:34:47.971Z,38.15
2019-01-20T08:37:16.249Z,37.28
2019-01-20T08:39:44.467Z,36.05
2019-01-20T08:42:12.741Z,39.43
2019-01-20T08:44:40.971Z,38.83
2019-01-20T08:47:10.852Z,37.90
2019-01-20T08:49:39.088Z,38.80
2019-01-20T08:52:07.349Z,39.03
2019-01-20T08:54:35.600Z,42.85
2019-01-20T08:57:03.833Z,41.42
2019-01-20T08:59:32.080Z,39.83
2019-01-20T09:02:00.343Z,43.30
2019-01-20T09:04:28.592Z,42.65
2019-01-20T09:06:56.905Z,45.73
2019-01-20T09:09:25.432Z,45.85
2019-01-20T09:11:53.738Z,44.20
2019-01-20T09:14:21.969Z,45.80
2019-01-20T09:16:50.273Z,44.70
2019-01-20T09:19:18.488Z,47.00
2019-01-20T09:21:46.757Z,44.40
2019-01-20T09:24:14.989Z,48.85
2019-01-20T09:26:43.301Z,44.48
2019-01-20T09:29:11.541Z,49.58
2019-01-20T09:31:39.782Z,47.88
2019-01-20T09:34:08.473Z,53.63
2019-01-20T09:36:36.703Z,49.83
2019-01-20T09:39:08.624Z,50.33
2019-01-20T09:41:36.883Z,52.45
2019-01-20T09:44:05.112Z,55.45
2019-01-20T09:46:33.348Z,51.10
2019-01-20T09:49:01.617Z,52.30
2019-01-20T09:51:29.845Z,49.88
2019-01-20T09:53:58.085Z,52.08
2019-01-20T09:56:26.365Z,52.35
2019-01-20T09:58:54.605Z,49.18
2019-01-20T10:01:22.889Z,53.70
2019-01-20T10:03:51.206Z,51.95
2019-01-20T10:06:19.476Z,53.87
2019-01-20T10:08:47.715Z,53.60
2019-01-20T10:11:15.980Z,53.60
2019-01-20T10:13:44.213Z,52.30
2019-01-20T10:16:12.454Z,55.25
2019-01-20T10:18:40.713Z,54.33
2019-01-20T10:21:08.960Z,56.93
2019-01-20T10:23:37.248Z,57.55
2019-01-20T10:26:05.486Z,57.25
2019-01-20T10:28:33.755Z,54.48
2019-01-20T10:31:01.992Z,57.83
2019-01-20T10:33:31.242Z,55.67
2019-01-20T10:36:01.169Z,55.83
2019-01-20T10:38:29.407Z,59.63
2019-01-20T10:40:57.680Z,56.88
2019-01-20T10:43:25.981Z,54.25
2019-01-20T10:45:54.233Z,58.80
2019-01-20T10:48:22.467Z,58.38
2019-01-20T10:50:50.730Z,56.28
2019-01-20T10:53:18.973Z,58.05
2019-01-20T10:55:47.246Z,56.75
2019-01-20T10:58:15.505Z,54.63
2019-01-20T11:00:43.772Z,54.95
2019-01-20T11:03:12.347Z,56.55
2019-01-20T11:05:40.587Z,59.42
2019-01-20T11:08:08.893Z,56.45
2019-01-20T11:10:37.128Z,56.80
2019-01-20T11:13:05.572Z,57.07
2019-01-20T11:15:33.798Z,59.30
2019-01-20T11:18:02.100Z,57.03
2019-01-20T11:20:30.368Z,58.08
2019-01-20T11:22:58.591Z,59.98
2019-01-20T11:25:32.414Z,55.10
2019-01-20T11:28:00.701Z,56.60
2019-01-20T11:30:29.019Z,56.37
2019-01-20T11:32:57.251Z,53.52
2019-01-20T11:35:25.524Z,56.85
2019-01-20T11:37:53.757Z,57.78
2019-01-20T11:40:22.012Z,61.58
2019-01-20T11:42:50.285Z,59.67
2019-01-20T11:45:21.545Z,54.10
2019-01-20T11:47:49.856Z,54.60
2019-01-20T11:50:18.440Z,56.33
2019-01-20T11:52:46.709Z,53.10
2019-01-20T11:55:20.083Z,52.33
2019-01-20T11:57:48.436Z,54.20
2019-01-20T12:00:28.813Z,51.00
2019-01-20T12:02:57.165Z,59.13
2019-01-20T12:05:25.476Z,56.13
2019-01-20T12:07:54.304Z,54.33
2019-01-20T12:10:23.992Z,53.45
2019-01-20T12:12:53.872Z,55.78
2019-01-20T12:15:22.113Z,56.25
2019-01-20T12:17:50.382Z,57.60
2019-01-20T12:20:18.649Z,58.48
2019-01-20T12:22:46.877Z,53.98
2019-01-20T12:25:17.115Z,51.77
2019-01-20T12:27:45.345Z,50.98
2019-01-20T12:30:16.839Z,57.95
2019-01-20T12:32:45.091Z,52.38
2019-01-20T12:35:13.467Z,54.98
2019-01-20T12:37:41.739Z,52.95
2019-01-20T12:40:21.930Z,52.05
2019-01-20T12:42:50.183Z,55.70
2019-01-20T12:45:18.432Z,53.00
2019-01-20T12:47:46.691Z,53.17
2019-01-20T12:50:17.174Z,54.15
2019-01-20T12:52:45.416Z,55.70
2019-01-20T12:55:14.992Z,51.60
2019-01-20T12:57:43.250Z,54.15
2019-01-20T13:00:18.988Z,54.10
2019-01-20T13:02:47.403Z,53.58
2019-01-20T13:05:15.752Z,56.55
2019-01-20T13:07:43.983Z,57.05
2019-01-20T13:10:14.632Z,57.15
2019-01-20T13:12:42.887Z,57.95
2019-01-20T13:15:13.582Z,60.25
2019-01-20T13:17:41.828Z,56.28
2019-01-20T13:20:13.180Z,60.23
2019-01-20T13:22:41.409Z,58.02
2019-01-20T13:25:12.320Z,59.93
2019-01-20T13:27:41.061Z,59.25
2019-01-20T13:30:12.497Z,59.15
2019-01-20T13:32:40.725Z,58.98
2019-01-20T13:35:10.441Z,60.95
2019-01-20T13:37:41.897Z,58.28
2019-01-20T13:40:19.161Z,58.75
2019-01-20T13:42:47.457Z,64.90
2019-01-20T13:45:15.702Z,61.68
2019-01-20T13:47:48.654Z,62.80
2019-01-20T13:50:16.705Z,60.45
2019-01-20T13:52:44.953Z,59.57
2019-01-20T13:55:15.153Z,60.40
2019-01-20T13:57:43.379Z,62.60
2019-01-20T14:00:25.240Z,61.20
2019-01-20T14:02:53.493Z,59.77
2019-01-20T14:05:21.778Z,66.82
2019-01-20T14:07:50.095Z,62.43
2019-01-20T14:10:23.693Z,63.42
2019-01-20T14:12:51.938Z,61.37
2019-01-20T14:15:20.232Z,61.77
2019-01-20T14:17:48.508Z,59.00
2019-01-20T14:20:24.787Z,56.10
2019-01-20T14:22:53.024Z,58.87
2019-01-20T14:25:26.446Z,62.13
2019-01-20T14:27:54.688Z,60.35
2019-01-20T14:30:25.259Z,62.33
2019-01-20T14:32:53.617Z,58.58
2019-01-20T14:35:21.860Z,61.30
2019-01-20T14:37:50.117Z,61.70
2019-01-20T14:40:20.383Z,56.57
2019-01-20T14:42:49.390Z,57.70
2019-01-20T14:45:18.803Z,59.70
2019-01-20T14:47:47.120Z,59.95
2019-01-20T14:50:20.566Z,61.48
2019-01-20T14:52:48.804Z,61.40
2019-01-20T14:55:17.113Z,61.42
2019-01-20T14:57:45.413Z,61.33
2019-01-20T15:00:16.927Z,60.60
2019-01-20T15:02:45.234Z,62.45
2019-01-20T15:05:13.576Z,61.45
2019-01-20T15:07:41.849Z,64.20
2019-01-20T15:10:12.846Z,63.75
2019-01-20T15:12:41.102Z,62.17
2019-01-20T15:15:12.518Z,58.38
2019-01-20T15:17:40.804Z,61.37
2019-01-20T15:20:11.443Z,58.83
2019-01-20T15:22:39.668Z,60.63
2019-01-20T15:25:13.735Z,64.60
2019-01-20T15:27:42.006Z,62.55
2019-01-20T15:30:17.821Z,65.55
2019-01-20T15:32:46.170Z,64.07
2019-01-20T15:35:14.468Z,65.87
2019-01-20T15:37:42.746Z,65.05
2019-01-20T15:40:16.547Z,65.70
2019-01-20T15:42:44.780Z,64.90
2019-01-20T15:45:16.554Z,62.98
2019-01-20T15:47:48.103Z,62.87
2019-01-20T15:50:28.059Z,67.15
2019-01-20T15:52:56.306Z,63.25
2019-01-20T15:55:24.610Z,64.85
2019-01-20T15:57:52.940Z,62.03
2019-01-20T16:00:23.311Z,59.60
2019-01-20T16:02:51.587Z,62.48
2019-01-20T16:05:19.833Z,58.80
2019-01-20T16:07:49.040Z,59.47
2019-01-20T16:10:17.669Z,59.33
2019-01-20T16:12:46.785Z,63.17
2019-01-20T16:15:24.190Z,62.00
2019-01-20T16:17:48.413Z,59.42
2019-01-20T16:20:18.446Z,59.23
2019-01-20T16:22:46.723Z,62.00
2019-01-20T16:25:17.520Z,63.28
2019-01-20T16:27:45.763Z,60.05
2019-01-20T16:30:17.088Z,63.85
2019-01-20T16:32:45.340Z,61.67
2019-01-20T16:35:14.048Z,61.95
2019-01-20T16:37:42.328Z,62.40
2019-01-20T16:40:16.432Z,60.73
2019-01-20T16:42:44.664Z,61.37
2019-01-20T16:45:15.337Z,63.78
2019-01-20T16:47:43.618Z,61.90
2019-01-20T16:50:15.132Z,64.55
2019-01-20T16:52:43.416Z,64.30
2019-01-20T16:55:12.794Z,62.73
2019-01-20T16:57:42.267Z,62.45
2019-01-20T17:00:16.161Z,66.50
2019-01-20T17:02:44.415Z,61.80
2019-01-20T17:05:13.512Z,64.23
2019-01-20T17:07:41.829Z,64.67
2019-01-20T17:10:13.424Z,61.50
2019-01-20T17:12:41.676Z,61.98
2019-01-20T17:15:13.421Z,61.73
2019-01-20T17:17:41.668Z,62.75
2019-01-20T17:20:11.483Z,64.23
2019-01-20T17:22:39.725Z,60.03
2019-01-20T17:25:10.348Z,64.97
2019-01-20T17:27:38.613Z,62.53
2019-01-20T17:30:16.093Z,61.80
2019-01-20T17:32:44.319Z,60.65
2019-01-20T17:35:12.572Z,59.67
2019-01-20T17:37:40.834Z,59.65
2019-01-20T17:40:17.054Z,61.63
2019-01-20T17:42:45.318Z,60.43
2019-01-20T17:45:17.049Z,60.33
2019-01-20T17:47:45.303Z,59.47
2019-01-20T17:50:16.974Z,55.85
2019-01-20T17:52:45.223Z,58.78
2019-01-20T17:55:13.474Z,59.98
2019-01-20T17:57:41.721Z,60.60
2019-01-20T18:00:28.834Z,62.83
2019-01-20T18:02:57.100Z,61.15
2019-01-20T18:05:27.033Z,59.13
2019-01-20T18:07:55.364Z,62.43
2019-01-20T18:10:23.637Z,63.50
2019-01-20T18:12:53.321Z,67.17
2019-01-20T18:15:24.359Z,65.45
2019-01-20T18:17:53.458Z,67.05
2019-01-20T18:20:29.481Z,63.05
2019-01-20T18:22:57.803Z,64.82
2019-01-20T18:25:26.055Z,61.95
2019-01-20T18:27:54.326Z,63.85
2019-01-20T18:30:27.769Z,59.85
2019-01-20T18:32:56.058Z,61.50
2019-01-20T18:35:25.717Z,62.70
2019-01-20T18:37:53.980Z,66.25
2019-01-20T18:40:23.556Z,64.87
2019-01-20T18:42:51.831Z,63.67
2019-01-20T18:45:23.056Z,63.55
2019-01-20T18:47:51.331Z,65.25
2019-01-20T18:50:22.325Z,63.78
2019-01-20T18:52:50.569Z,65.20
2019-01-20T18:55:19.960Z,65.53
2019-01-20T18:57:48.408Z,66.45
2019-01-20T19:00:19.945Z,62.90
2019-01-20T19:02:48.182Z,64.67
2019-01-20T19:05:17.496Z,67.47
2019-01-20T19:07:45.732Z,63.50
2019-01-20T19:10:19.043Z,63.97
2019-01-20T19:12:47.308Z,66.35
2019-01-20T19:15:18.149Z,65.20
2019-01-20T19:17:46.419Z,68.87
2019-01-20T19:20:17.661Z,66.50
2019-01-20T19:22:46.591Z,65.83
2019-01-20T19:25:14.826Z,67.05
2019-01-20T19:27:43.103Z,68.87
2019-01-20T19:30:19.937Z,66.42
2019-01-20T19:32:48.219Z,63.75
2019-01-20T19:35:16.452Z,66.55
2019-01-20T19:37:44.689Z,64.00
2019-01-20T19:40:14.629Z,65.92
2019-01-20T19:42:42.877Z,69.82
2019-01-20T19:45:16.386Z,71.02
2019-01-20T19:47:44.653Z,65.40
2019-01-20T19:50:14.481Z,63.10
2019-01-20T19:52:42.728Z,64.07
2019-01-20T19:55:24.029Z,64.03
2019-01-20T19:57:52.636Z,64.82
2019-01-20T20:00:29.019Z,65.32
2019-01-20T20:02:57.251Z,59.98
2019-01-20T20:05:25.535Z,65.17
2019-01-20T20:07:54.776Z,63.83
2019-01-20T20:10:24.904Z,64.90
2019-01-20T20:12:54.873Z,65.50
2019-01-20T20:15:25.207Z,67.05
2019-01-20T20:17:53.560Z,66.15
2019-01-20T20:20:21.966Z,66.25
2019-01-20T20:22:50.298Z,66.90
2019-01-20T20:25:20.206Z,66.60
2019-01-20T20:27:48.473Z,65.28
2019-01-20T20:30:22.276Z,71.53
2019-01-20T20:32:50.641Z,66.28
2019-01-20T20:35:18.917Z,65.20
2019-01-20T20:37:47.166Z,68.28
2019-01-20T20:40:17.563Z,67.95
2019-01-20T20:42:45.842Z,68.37
2019-01-20T20:45:16.462Z,67.12
2019-01-20T20:47:44.770Z,73.60
2019-01-20T20:50:14.691Z,73.67
2019-01-20T20:52:46.102Z,74.17
2019-01-20T20:55:13.104Z,70.92
2019-01-20T20:57:41.339Z,69.65
2019-01-20T21:00:15.681Z,70.95
2019-01-20T21:02:43.928Z,70.03
2019-01-20T21:05:12.185Z,72.73
2019-01-20T21:07:40.454Z,71.30
2019-01-20T21:10:14.539Z,70.37
2019-01-20T21:12:46.031Z,71.72
2019-01-20T21:15:16.797Z,72.60
2019-01-20T21:17:48.262Z,71.70
2019-01-20T21:20:21.126Z,72.67
2019-01-20T21:22:49.488Z,69.95
2019-01-20T21:25:17.720Z,74.12
2019-01-20T21:27:45.948Z,71.15
2019-01-20T21:30:23.377Z,73.02
2019-01-20T21:32:51.674Z,72.72
2019-01-20T21:35:19.904Z,71.60
2019-01-20T21:37:48.189Z,73.37
2019-01-20T21:40:18.053Z,72.58
2019-01-20T21:42:46.279Z,71.23
2019-01-20T21:45:15.980Z,74.07
2019-01-20T21:47:44.221Z,75.28
2019-01-20T21:50:15.588Z,74.30
2019-01-20T21:52:43.859Z,76.28
2019-01-20T21:55:12.255Z,75.30
2019-01-20T21:57:40.504Z,74.20
2019-01-20T22:00:15.154Z,70.25
2019-01-20T22:02:43.371Z,74.17
2019-01-20T22:05:11.636Z,77.22
2019-01-20T22:07:39.910Z,79.65
2019-01-20T22:10:11.423Z,83.37
2019-01-20T22:12:39.665Z,86.65
2019-01-20T22:15:09.281Z,86.75
2019-01-20T22:17:37.662Z,87.45
2019-01-20T22:20:09.096Z,87.95
2019-01-20T22:22:37.356Z,91.35
2019-01-20T22:25:07.440Z,100.95
2019-01-20T22:27:35.689Z,101.18
2019-01-20T22:30:05.612Z,101.12
2019-01-20T22:32:33.848Z,102.62
2019-01-20T22:35:02.080Z,110.20
2019-01-20T22:37:30.340Z,110.08
2019-01-20T22:39:58.584Z,106.07
2019-01-20T22:42:26.837Z,101.33
2019-01-20T22:44:55.082Z,100.62
2019-01-20T22:47:23.348Z,103.25
2019-01-20T22:49:51.584Z,94.60
2019-01-20T22:52:19.866Z,90.07
2019-01-20T22:54:48.096Z,93.22
2019-01-20T22:57:16.337Z,91.80
2019-01-20T22:59:44.593Z,89.87
2019-01-20T23:02:12.831Z,90.92
2019-01-20T23:04:41.101Z,90.75
2019-01-20T23:07:09.387Z,95.25
2019-01-20T23:09:37.689Z,100.17
2019-01-20T23:12:06.017Z,95.28
2019-01-20T23:14:34.248Z,94.37
2019-01-20T23:17:07.624Z,90.28
2019-01-20T23:19:32.462Z,90.87
2019-01-20T23:22:00.692Z,93.87
2019-01-20T23:24:28.929Z,98.92
2019-01-20T23:26:57.204Z,104.87
2019-01-20T23:29:25.455Z,102.50
2019-01-20T23:31:53.680Z,94.52
2019-01-20T23:34:21.946Z,97.95
2019-01-20T23:36:50.179Z,95.75
2019-01-20T23:39:21.080Z,93.17
2019-01-20T23:41:50.973Z,96.40
2019-01-20T23:44:19.210Z,93.80
2019-01-20T23:46:47.457Z,92.92
2019-01-20T23:49:15.745Z,94.00
2019-01-20T23:51:44.027Z,93.33
2019-01-20T23:54:12.366Z,90.70
2019-01-20T23:56:40.618Z,90.03
2019-01-20T23:59:08.860Z,89.35
